Arnold Palmer Regional Airport
KLBE : rendu visible

Aérodrome :











RETROUVEZ-NOUS SUR...

 
LOGIN :

S'inscrire | Disclaimer

   EN    FR    IT 

 









Légende :    VFR   VFR Marginal   IFR   IFR Intensif   IFR Très Intensif
Visi : 
Plafond : 
>= 8 km
>= 3000ft
5 à 8 km
1000 à 3000 ft
1500m à 5 km
500 à 1000 ft
800 à 1500m
200 à 500 ft
< 800m
< 200 ft
Symboles :   Orages  Brouillard  Fortes neiges  Fortes précipitations  Vent > 20 kt






- Altitude de l'aérodrome : 1199 ft
- Code IATA : LBE


KLBE - Arnold Palmer Regional

DERNIER METAR :
  • 190635Z AUTO 23010KT 10SM FEW035 SCT055 03/M01 A2975 RMK AO2

METARs EXPIRÉS :
  • 190615Z AUTO 23008G14KT 10SM FEW035 SCT060 03/M00 A2975 RMK AO2
  • 190555Z AUTO 23010KT 10SM FEW033 SCT055 03/M00 A2975 RMK AO2
  • 190535Z AUTO 24007G15KT 10SM SCT030 BKN035 OVC055 04/M00 A2975 RMK AO2
  • 190515Z AUTO 26013G26KT 10SM SCT026 OVC031 04/00 A2976 RMK AO2
  • 190455Z AUTO 27009KT 10SM OVC026 04/01 A2976 RMK AO2
  • 190435Z AUTO 24008G15KT 10SM OVC027 05/01 A2975 RMK AO2
  • 190415Z AUTO 25012G21KT 10SM FEW021 OVC028 05/01 A2974 RMK AO2
  • 190355Z AUTO 26015G22KT 10SM OVC020 05/03 A2973 RMK AO2

TAF KLBE
Valide du 19 à 06h jusqu'au 20 à 06h UTC


190520Z 1906/2006 26013G26KT P6SM OVC025
FM190800 27014G28KT P6SM OVC015
TEMPO 1908/1910 4SM -SHSN
FM191400 27013G26KT P6SM OVC022
FM200500 28010G19KT P6SM VCSH OVC020



MET'MAP, la Météo Aéronautique d'un coup d'oeil ! - Copyright ORBIFLY Décembre 2007 - Disclaimer

ORBIFLY MET'MAP TEAM :

Programmation & Développement : Alexandra Zaïnal
Sur une idée originale de : Baudouin d'Aumeries
Assistance à la programmation : Marc-Olivier Méhu
Soutien technique & logistique : Manuel Goepfert

Contact : metmap@orbifly.com




SOURCES & CREDITS :

   NOAA       Earth
Advisory